Time;durP1;ratioP1;P1;durP2;ratioP2;P2;SDS_P1;SDS_P2;PMS_P1;PMS_P2;Temp;Humidity;BMP_temperature;BMP_pressure;BME280_temperature;BME280_humidity;BME280_pressure;Samples;Min_cycle;Max_cycle;Signal;HPM_P1;HPM_P2
2023/10/18 00:00:25;;;;;;;1.42;1.33;;;;;;;;;;4975567;28;20504;-70
2023/10/18 00:02:53;;;;;;;0.60;0.60;;;;;;;;;;4974020;28;20493;-71
2023/10/18 00:05:22;;;;;;;1.00;0.55;;;;;;;;;;4984366;28;20137;-71
2023/10/18 00:07:57;;;;;;;0.88;0.88;;;;;;;;;;4980636;28;20129;-70
2023/10/18 00:10:28;;;;;;;1.27;1.10;;;;;;;;;;4977757;28;20054;-71
2023/10/18 00:12:56;;;;;;;0.73;0.73;;;;;;;;;;4979649;28;20117;-71
2023/10/18 00:15:23;;;;;;;0.95;0.95;;;;;;;;;;4984282;28;20077;-71
2023/10/18 00:17:51;;;;;;;1.48;0.60;;;;;;;;;;4979659;28;20539;-70
2023/10/18 00:20:25;;;;;;;0.30;0.30;;;;;;;;;;4980669;28;20052;-71
2023/10/18 00:22:54;;;;;;;0.20;0.20;;;;;;;;;;4981194;28;20054;-71
2023/10/18 00:25:21;;;;;;;0.10;0.10;;;;;;;;;;4987200;28;20054;-71
2023/10/18 00:27:49;;;;;;;1.05;1.05;;;;;;;;;;4977060;28;20132;-71
2023/10/18 00:30:21;;;;;;;0.30;0.30;;;;;;;;;;4982909;28;20472;-70
2023/10/18 00:32:48;;;;;;;0.10;0.10;;;;;;;;;;4974195;28;20465;-71
2023/10/18 00:35:19;;;;;;;0.25;0.25;;;;;;;;;;4976740;28;20050;-71
2023/10/18 00:37:54;;;;;;;0.43;0.43;;;;;;;;;;4999339;28;20073;-70
2023/10/18 00:43:16;;;;;;;0.10;0.10;;;;;;;;;;4984800;28;20050;-70
2023/10/18 00:45:50;;;;;;;0.10;0.10;;;;;;;;;;4986143;28;20602;-70
2023/10/18 00:48:19;;;;;;;1.42;1.33;;;;;;;;;;4983289;28;20081;-71
2023/10/18 00:50:52;;;;;;;0.25;0.25;;;;;;;;;;4983532;28;20070;-71
2023/10/18 00:53:20;;;;;;;1.08;0.60;;;;;;;;;;4980897;28;20397;-71
2023/10/18 00:56:04;;;;;;;0.10;0.10;;;;;;;;;;4984630;28;20071;-70
2023/10/18 00:58:33;;;;;;;0.10;0.10;;;;;;;;;;4986709;28;20337;-70
2023/10/18 01:01:08;;;;;;;0.10;0.10;;;;;;;;;;4972768;28;20112;-69
2023/10/18 01:03:38;;;;;;;1.65;0.90;;;;;;;;;;4980737;28;20058;-69
2023/10/18 01:06:17;;;;;;;0.10;0.10;;;;;;;;;;4979567;28;20161;-67
2023/10/18 01:08:47;;;;;;;0.00;0.00;;;;;;;;;;4975855;28;20125;-68
2023/10/18 01:11:18;;;;;;;0.10;0.10;;;;;;;;;;4982143;28;20070;-67
2023/10/18 01:13:47;;;;;;;0.10;0.10;;;;;;;;;;5007789;28;20050;-68
2023/10/18 01:16:23;;;;;;;0.10;0.10;;;;;;;;;;4982204;28;20049;-68
2023/10/18 01:18:56;;;;;;;0.55;0.55;;;;;;;;;;4982852;28;20046;-68
2023/10/18 01:21:24;;;;;;;0.68;0.68;;;;;;;;;;4982288;28;20074;-68
2023/10/18 01:23:53;;;;;;;0.10;0.10;;;;;;;;;;4982984;28;20054;-68
2023/10/18 01:26:22;;;;;;;0.10;0.10;;;;;;;;;;4982519;28;20047;-69
2023/10/18 01:28:51;;;;;;;0.20;0.20;;;;;;;;;;4962308;28;20054;-68
2023/10/18 01:31:19;;;;;;;1.48;1.35;;;;;;;;;;4972823;28;20077;-67
2023/10/18 01:33:49;;;;;;;0.35;0.35;;;;;;;;;;4979711;28;20050;-68
2023/10/18 01:36:17;;;;;;;0.00;0.00;;;;;;;;;;4982745;28;20060;-68
2023/10/18 01:38:49;;;;;;;0.40;0.40;;;;;;;;;;4980657;28;20444;-68
2023/10/18 01:41:27;;;;;;;0.10;0.10;;;;;;;;;;4979995;28;20050;-69
2023/10/18 01:44:07;;;;;;;0.10;0.10;;;;;;;;;;5011943;28;20264;-68
2023/10/18 01:46:35;;;;;;;0.15;0.15;;;;;;;;;;5000504;28;20101;-68
2023/10/18 01:49:07;;;;;;;0.15;0.15;;;;;;;;;;4977813;28;20050;-69
2023/10/18 01:51:35;;;;;;;0.10;0.10;;;;;;;;;;5010051;28;20042;-68
2023/10/18 01:54:09;;;;;;;0.13;0.13;;;;;;;;;;4978171;28;20042;-68
2023/10/18 01:56:37;;;;;;;0.10;0.10;;;;;;;;;;4994502;28;20054;-68
2023/10/18 01:59:07;;;;;;;0.10;0.10;;;;;;;;;;4998919;28;20171;-69
2023/10/18 02:01:35;;;;;;;0.10;0.10;;;;;;;;;;5012851;28;20524;-68
2023/10/18 02:04:03;;;;;;;1.10;1.10;;;;;;;;;;4985178;28;20054;-69
2023/10/18 02:06:31;;;;;;;0.55;0.55;;;;;;;;;;4984086;28;20397;-68
2023/10/18 02:08:58;;;;;;;0.10;0.10;;;;;;;;;;4984310;28;20046;-69
2023/10/18 02:11:25;;;;;;;0.70;0.70;;;;;;;;;;4979894;28;20527;-69
2023/10/18 02:13:53;;;;;;;0.10;0.10;;;;;;;;;;4972703;28;20050;-68
2023/10/18 02:16:20;;;;;;;0.10;0.10;;;;;;;;;;4980458;28;20133;-68
2023/10/18 02:18:48;;;;;;;0.10;0.10;;;;;;;;;;4982894;28;20548;-69
2023/10/18 02:21:16;;;;;;;0.10;0.10;;;;;;;;;;4983630;28;20508;-68
2023/10/18 02:23:50;;;;;;;0.40;0.40;;;;;;;;;;4981358;28;20057;-68
2023/10/18 02:26:30;;;;;;;0.20;0.20;;;;;;;;;;4983989;28;20487;-68
2023/10/18 02:28:59;;;;;;;0.30;0.30;;;;;;;;;;5017334;28;20132;-68
2023/10/18 02:31:28;;;;;;;0.10;0.10;;;;;;;;;;4985025;28;20046;-68
2023/10/18 02:33:56;;;;;;;0.45;0.45;;;;;;;;;;4984871;28;20131;-69
2023/10/18 02:36:38;;;;;;;0.13;0.13;;;;;;;;;;4987091;28;20057;-69
2023/10/18 02:39:07;;;;;;;0.00;0.00;;;;;;;;;;4997046;28;20043;-69
2023/10/18 02:41:37;;;;;;;0.20;0.20;;;;;;;;;;4982301;28;20045;-69
2023/10/18 02:44:11;;;;;;;0.00;0.00;;;;;;;;;;4966105;28;20385;-68
2023/10/18 02:46:38;;;;;;;0.00;0.00;;;;;;;;;;4986107;28;20061;-68
2023/10/18 02:49:08;;;;;;;0.10;0.10;;;;;;;;;;4985248;28;20097;-68
2023/10/18 02:51:36;;;;;;;0.10;0.10;;;;;;;;;;4984556;28;20531;-69
2023/10/18 02:54:25;;;;;;;0.10;0.10;;;;;;;;;;4981386;28;20133;-69
2023/10/18 02:56:52;;;;;;;0.00;0.00;;;;;;;;;;4980027;28;20042;-68
2023/10/18 02:59:25;;;;;;;0.28;0.20;;;;;;;;;;4984188;28;20046;-68
2023/10/18 03:02:01;;;;;;;0.13;0.13;;;;;;;;;;4981503;28;20042;-67
2023/10/18 03:04:34;;;;;;;0.00;0.00;;;;;;;;;;4997595;28;20047;-68
2023/10/18 03:07:02;;;;;;;;;;;;;;;;;;4983801;28;20054;-68
2023/10/18 03:12:01;;;;;;;0.17;0.17;;;;;;;;;;4982118;28;20051;-68
2023/10/18 03:17:19;;;;;;;0.17;0.17;;;;;;;;;;4991547;28;20124;-68
2023/10/18 03:19:50;;;;;;;0.10;0.10;;;;;;;;;;4986450;28;20118;-69
2023/10/18 03:22:22;;;;;;;0.10;0.10;;;;;;;;;;4984171;28;20038;-69
2023/10/18 03:24:56;;;;;;;0.10;0.10;;;;;;;;;;4982838;28;20041;-69
2023/10/18 03:27:41;;;;;;;0.32;0.32;;;;;;;;;;4986616;28;20042;-69
2023/10/18 03:30:17;;;;;;;0.00;0.00;;;;;;;;;;4987374;28;20097;-68
2023/10/18 03:32:55;;;;;;;0.30;0.30;;;;;;;;;;4985601;28;20594;-68
2023/10/18 03:35:23;;;;;;;0.40;0.40;;;;;;;;;;4987403;28;20101;-69
2023/10/18 03:37:50;;;;;;;0.50;0.50;;;;;;;;;;4985127;28;20116;-69
2023/10/18 03:40:24;;;;;;;0.20;0.20;;;;;;;;;;4983128;28;20042;-69
2023/10/18 03:42:54;;;;;;;0.57;0.40;;;;;;;;;;4984931;28;20590;-68
2023/10/18 03:45:22;;;;;;;0.32;0.32;;;;;;;;;;5002837;28;20046;-69
2023/10/18 03:47:57;;;;;;;0.20;0.20;;;;;;;;;;5016180;28;20412;-69
2023/10/18 03:50:35;;;;;;;0.30;0.30;;;;;;;;;;4983100;28;20046;-69
2023/10/18 03:53:06;;;;;;;0.10;0.10;;;;;;;;;;4984849;28;20057;-69
2023/10/18 03:55:36;;;;;;;1.40;1.30;;;;;;;;;;4975955;28;20049;-69
2023/10/18 03:58:05;;;;;;;0.30;0.30;;;;;;;;;;5016164;28;20042;-68
2023/10/18 04:00:39;;;;;;;0.47;0.47;;;;;;;;;;4978960;28;20464;-69
2023/10/18 04:03:15;;;;;;;0.52;0.52;;;;;;;;;;4969405;28;20492;-69
2023/10/18 04:05:43;;;;;;;0.20;0.20;;;;;;;;;;4987641;28;20381;-68
2023/10/18 04:08:14;;;;;;;0.10;0.10;;;;;;;;;;4987448;28;20140;-69
2023/10/18 04:10:43;;;;;;;2.17;0.82;;;;;;;;;;4983842;28;20046;-68
2023/10/18 04:13:14;;;;;;;1.40;1.25;;;;;;;;;;4985171;28;20058;-68
2023/10/18 04:15:46;;;;;;;0.88;0.88;;;;;;;;;;4986954;28;20133;-69
2023/10/18 04:18:22;;;;;;;0.30;0.30;;;;;;;;;;4988534;28;20073;-68
2023/10/18 04:20:52;;;;;;;0.25;0.25;;;;;;;;;;4982821;28;20047;-67
2023/10/18 04:23:25;;;;;;;0.50;0.50;;;;;;;;;;4978465;28;20054;-68
2023/10/18 04:26:10;;;;;;;0.88;0.70;;;;;;;;;;4978653;28;21615;-69
2023/10/18 04:28:38;;;;;;;2.85;1.25;;;;;;;;;;4981466;28;20511;-74
2023/10/18 04:31:11;;;;;;;0.52;0.38;;;;;;;;;;4977749;28;20042;-69
2023/10/18 04:33:43;;;;;;;0.50;0.50;;;;;;;;;;4980885;28;20042;-69
2023/10/18 04:36:12;;;;;;;0.52;0.52;;;;;;;;;;4983533;28;21112;-70
2023/10/18 04:38:44;;;;;;;0.82;0.82;;;;;;;;;;4983788;28;20130;-69
2023/10/18 04:41:23;;;;;;;1.27;1.17;;;;;;;;;;4976524;28;20055;-68
2023/10/18 04:44:11;;;;;;;0.20;0.20;;;;;;;;;;4973491;28;20144;-69
2023/10/18 04:46:39;;;;;;;0.47;0.47;;;;;;;;;;4982703;28;20233;-69
2023/10/18 04:54:11;;;;;;;10.73;10.02;;;;;;;;;;4976747;28;20046;-68
2023/10/18 04:56:39;;;;;;;0.30;0.30;;;;;;;;;;4982064;28;20034;-69
2023/10/18 05:04:29;;;;;;;0.73;0.73;;;;;;;;;;4970025;28;20053;-69
2023/10/18 05:06:59;;;;;;;0.10;0.10;;;;;;;;;;4980325;28;20725;-70
2023/10/18 05:09:34;;;;;;;0.38;0.38;;;;;;;;;;4984243;28;20050;-77
2023/10/18 05:12:16;;;;;;;0.35;0.35;;;;;;;;;;4989878;28;20078;-74
2023/10/18 05:14:50;;;;;;;;;;;;;;;;;;5000717;28;20057;-76
2023/10/18 05:17:23;;;;;;;0.57;0.30;;;;;;;;;;4991197;28;19929;-76
2023/10/18 05:19:51;;;;;;;20.35;4.35;;;;;;;;;;4998198;28;20050;-73
2023/10/18 05:22:25;;;;;;;1.55;1.45;;;;;;;;;;4995177;28;20034;-72
2023/10/18 05:25:23;;;;;;;0.73;0.73;;;;;;;;;;4991331;28;20045;-73
2023/10/18 05:28:02;;;;;;;1.10;0.68;;;;;;;;;;4999958;28;20140;-71
2023/10/18 05:33:47;;;;;;;0.63;0.63;;;;;;;;;;4987422;28;20061;-70
2023/10/18 05:38:53;;;;;;;0.45;0.45;;;;;;;;;;4941167;28;20473;-70
2023/10/18 05:44:01;;;;;;;0.68;0.68;;;;;;;;;;4974516;28;20723;-71
2023/10/18 05:46:31;;;;;;;1.77;1.67;;;;;;;;;;4980516;28;20133;-70
2023/10/18 05:49:00;;;;;;;4.93;1.83;;;;;;;;;;4972438;28;20078;-71
2023/10/18 05:51:38;;;;;;;2.85;2.65;;;;;;;;;;4974162;28;20050;-70
2023/10/18 05:54:06;;;;;;;0.75;0.73;;;;;;;;;;4979019;28;20051;-71
2023/10/18 05:56:34;;;;;;;1.58;1.48;;;;;;;;;;4984497;28;20078;-70
2023/10/18 06:01:50;;;;;;;1.95;1.33;;;;;;;;;;4981952;28;20120;-70
2023/10/18 06:04:24;;;;;;;1.95;1.08;;;;;;;;;;4983968;28;20133;-71
2023/10/18 06:06:55;;;;;;;0.90;0.85;;;;;;;;;;4984559;28;20061;-71
2023/10/18 06:09:26;;;;;;;0.75;0.70;;;;;;;;;;4985175;28;20516;-71
2023/10/18 06:11:55;;;;;;;1.23;1.20;;;;;;;;;;4983876;28;20057;-70
2023/10/18 06:14:25;;;;;;;0.82;0.82;;;;;;;;;;4985673;28;20133;-70
2023/10/18 06:17:06;;;;;;;1.45;1.35;;;;;;;;;;4976863;28;20082;-70
2023/10/18 06:19:36;;;;;;;2.78;0.90;;;;;;;;;;4979795;28;20451;-71
2023/10/18 06:24:55;;;;;;;0.85;0.82;;;;;;;;;;4979706;28;20069;-71
2023/10/18 06:27:23;;;;;;;2.85;1.88;;;;;;;;;;4984877;28;20061;-70
2023/10/18 06:29:53;;;;;;;0.40;0.32;;;;;;;;;;4986047;28;20054;-71
2023/10/18 06:32:27;;;;;;;0.10;0.10;;;;;;;;;;4983673;28;20050;-70
2023/10/18 06:34:58;;;;;;;5.15;2.85;;;;;;;;;;4987070;28;20061;-70
2023/10/18 06:37:41;;;;;;;0.17;0.17;;;;;;;;;;4991385;28;20053;-70
2023/10/18 06:40:43;;;;;;;0.55;0.55;;;;;;;;;;4991111;28;20052;-70
2023/10/18 06:43:31;;;;;;;0.85;0.85;;;;;;;;;;4987041;28;20031;-70
2023/10/18 06:45:58;;;;;;;0.25;0.25;;;;;;;;;;4987509;28;20039;-70
2023/10/18 06:48:30;;;;;;;0.63;0.50;;;;;;;;;;4984805;28;20057;-70
2023/10/18 06:50:59;;;;;;;0.40;0.40;;;;;;;;;;4988395;28;20125;-70
2023/10/18 06:53:27;;;;;;;5.40;4.88;;;;;;;;;;4988131;28;20042;-71
2023/10/18 06:56:06;;;;;;;0.25;0.25;;;;;;;;;;4988606;28;20078;-70
2023/10/18 07:01:14;;;;;;;1.10;0.57;;;;;;;;;;4985058;28;20066;-70
2023/10/18 07:03:42;;;;;;;0.43;0.43;;;;;;;;;;4982113;28;20042;-69
2023/10/18 07:06:18;;;;;;;1.08;0.63;;;;;;;;;;4984280;28;20304;-69
2023/10/18 07:08:49;;;;;;;0.82;0.68;;;;;;;;;;5001909;28;20053;-69
2023/10/18 07:11:18;;;;;;;0.10;0.10;;;;;;;;;;4985240;28;20153;-69
2023/10/18 07:13:55;;;;;;;1.58;1.48;;;;;;;;;;4985795;28;20129;-68
2023/10/18 07:21:46;;;;;;;0.85;0.85;;;;;;;;;;4988540;28;20565;-69
2023/10/18 07:24:17;;;;;;;2.92;0.52;;;;;;;;;;4988276;28;20047;-69
2023/10/18 07:26:48;;;;;;;0.20;0.20;;;;;;;;;;4984790;28;20445;-69
2023/10/18 07:29:16;;;;;;;0.75;0.75;;;;;;;;;;4982627;28;20042;-70
2023/10/18 07:31:46;;;;;;;1.20;1.17;;;;;;;;;;4984963;28;20042;-69
2023/10/18 07:34:17;;;;;;;1.60;0.97;;;;;;;;;;4989433;28;20397;-70
2023/10/18 07:36:46;;;;;;;0.57;0.57;;;;;;;;;;5001107;28;20294;-69
2023/10/18 07:39:16;;;;;;;0.65;0.65;;;;;;;;;;4991293;28;20178;-69
2023/10/18 07:41:44;;;;;;;0.20;0.20;;;;;;;;;;4989692;28;20057;-69
2023/10/18 07:44:11;;;;;;;0.98;0.82;;;;;;;;;;4989024;28;20050;-69
2023/10/18 07:46:42;;;;;;;0.20;0.20;;;;;;;;;;4988538;28;20038;-69
2023/10/18 07:49:14;;;;;;;0.22;0.22;;;;;;;;;;4985205;28;20056;-69
2023/10/18 07:51:43;;;;;;;0.20;0.20;;;;;;;;;;4991196;28;20050;-69
2023/10/18 07:54:14;;;;;;;0.75;0.75;;;;;;;;;;4988966;28;20050;-69
2023/10/18 07:56:54;;;;;;;2.00;1.90;;;;;;;;;;4985626;28;20050;-69
2023/10/18 07:59:29;;;;;;;1.10;1.10;;;;;;;;;;4985828;28;20105;-69
2023/10/18 08:02:23;;;;;;;0.40;0.40;;;;;;;;;;4988747;28;20085;-69
2023/10/18 08:04:51;;;;;;;;;;;;;;;;;;4989618;28;20050;-69
2023/10/18 08:07:22;;;;;;;1.80;1.70;;;;;;;;;;4991026;28;19968;-69
2023/10/18 08:09:57;;;;;;;0.25;0.20;;;;;;;;;;4990276;28;20180;-69
2023/10/18 08:12:28;;;;;;;0.70;0.63;;;;;;;;;;4988377;28;20050;-70
2023/10/18 08:14:57;;;;;;;1.02;1.02;;;;;;;;;;4988180;28;20052;-70
2023/10/18 08:17:33;;;;;;;0.93;0.93;;;;;;;;;;4991064;28;20073;-70
2023/10/18 08:20:40;;;;;;;0.47;0.47;;;;;;;;;;4991255;28;20054;-71
2023/10/18 08:23:19;;;;;;;0.82;0.82;;;;;;;;;;4988296;28;20503;-69
2023/10/18 08:26:03;;;;;;;0.60;0.60;;;;;;;;;;4987716;28;20052;-69
2023/10/18 08:28:42;;;;;;;1.90;1.80;;;;;;;;;;4989143;28;20133;-69
2023/10/18 08:31:57;;;;;;;0.43;0.43;;;;;;;;;;4989354;28;20109;-69
2023/10/18 08:34:15;;;;;;;8.60;8.00;;;;;;;;;;4985589;28;20165;-70
2023/10/18 08:36:43;;;;;;;1.55;1.45;;;;;;;;;;4990612;28;20501;-69
2023/10/18 08:39:11;;;;;;;1.30;1.20;;;;;;;;;;4992739;28;20043;-69
2023/10/18 08:41:53;;;;;;;0.55;0.55;;;;;;;;;;4989243;28;20340;-71
2023/10/18 08:44:24;;;;;;;1.08;0.98;;;;;;;;;;4987146;28;20046;-69
2023/10/18 08:46:55;;;;;;;0.10;0.10;;;;;;;;;;4989334;28;20053;-70
2023/10/18 08:49:23;;;;;;;1.05;1.05;;;;;;;;;;5020750;28;20520;-69
2023/10/18 08:52:06;;;;;;;7.47;6.95;;;;;;;;;;4990954;28;20050;-70
2023/10/18 08:54:34;;;;;;;1.38;0.75;;;;;;;;;;4989775;28;20046;-70
2023/10/18 08:57:11;;;;;;;0.60;0.60;;;;;;;;;;4988323;28;20105;-70
2023/10/18 08:59:51;;;;;;;0.85;0.70;;;;;;;;;;4987863;28;20059;-70
2023/10/18 09:02:23;;;;;;;0.05;0.05;;;;;;;;;;4990339;28;20056;-70
2023/10/18 09:04:54;;;;;;;0.28;0.28;;;;;;;;;;4988508;28;20058;-70
2023/10/18 09:07:42;;;;;;;1.20;0.88;;;;;;;;;;4989166;28;20062;-70
2023/10/18 09:10:31;;;;;;;0.45;0.45;;;;;;;;;;4991616;28;20430;-70
2023/10/18 09:18:30;;;;;;;0.75;0.65;;;;;;;;;;4986009;28;20138;-69
2023/10/18 09:21:07;;;;;;;0.57;0.57;;;;;;;;;;4988357;28;20497;-70
2023/10/18 09:23:35;;;;;;;0.20;0.20;;;;;;;;;;4986449;28;20184;-70
2023/10/18 09:26:13;;;;;;;0.43;0.43;;;;;;;;;;4987852;28;20109;-70
2023/10/18 09:28:44;;;;;;;1.55;0.85;;;;;;;;;;4987503;28;20420;-69
2023/10/18 09:31:16;;;;;;;2.00;1.80;;;;;;;;;;4986439;28;20500;-70
2023/10/18 09:34:33;;;;;;;0.68;0.68;;;;;;;;;;4987090;28;20057;-70
2023/10/18 09:36:39;;;;;;;0.20;0.20;;;;;;;;;;4977785;28;20077;-70
2023/10/18 09:39:10;;;;;;;3.95;0.70;;;;;;;;;;4984276;28;20101;-71
2023/10/18 09:41:39;;;;;;;0.43;0.40;;;;;;;;;;4987013;28;20046;-69
2023/10/18 09:44:07;;;;;;;0.05;0.05;;;;;;;;;;4991478;28;20551;-69
2023/10/18 09:46:34;;;;;;;0.00;0.00;;;;;;;;;;4982937;28;20057;-69
2023/10/18 09:49:05;;;;;;;0.25;0.25;;;;;;;;;;4987338;28;20494;-70
2023/10/18 09:51:33;;;;;;;0.40;0.40;;;;;;;;;;4984550;28;20534;-70
2023/10/18 09:54:07;;;;;;;0.10;0.10;;;;;;;;;;4977210;28;21417;-70
2023/10/18 09:56:35;;;;;;;0.20;0.20;;;;;;;;;;4986539;28;20059;-69
2023/10/18 09:59:11;;;;;;;0.22;0.22;;;;;;;;;;4986499;28;20042;-70
2023/10/18 10:04:14;;;;;;;1.08;0.80;;;;;;;;;;4983301;28;20109;-70
2023/10/18 10:06:46;;;;;;;0.38;0.38;;;;;;;;;;4988291;28;20512;-71
2023/10/18 10:09:15;;;;;;;0.13;0.13;;;;;;;;;;4989775;28;20050;-71
2023/10/18 10:11:44;;;;;;;0.00;0.00;;;;;;;;;;4988345;28;20070;-71
2023/10/18 10:14:21;;;;;;;0.65;0.65;;;;;;;;;;4986848;28;20140;-71
2023/10/18 10:16:57;;;;;;;0.22;0.22;;;;;;;;;;4988203;28;20058;-71
2023/10/18 10:19:33;;;;;;;3.60;1.40;;;;;;;;;;4984939;28;20517;-71
2023/10/18 10:22:04;;;;;;;1.55;0.50;;;;;;;;;;4985906;28;20046;-71
2023/10/18 10:24:35;;;;;;;;;;;;;;;;;;4984194;28;20042;-71
2023/10/18 10:30:03;;;;;;;0.50;0.50;;;;;;;;;;4988813;28;20058;-71
2023/10/18 10:32:31;;;;;;;0.10;0.10;;;;;;;;;;4986502;28;20057;-72
2023/10/18 10:35:15;;;;;;;0.50;0.50;;;;;;;;;;4981500;28;20057;-71
2023/10/18 10:37:50;;;;;;;0.55;0.32;;;;;;;;;;4980932;28;20068;-71
2023/10/18 10:43:02;;;;;;;0.35;0.35;;;;;;;;;;4984368;28;20125;-71
2023/10/18 10:45:31;;;;;;;;;;;;;;;;;;4985498;28;20050;-72
2023/10/18 10:51:13;;;;;;;0.05;0.05;;;;;;;;;;4982472;28;20046;-71
2023/10/18 10:53:45;;;;;;;0.08;0.08;;;;;;;;;;4997113;28;20097;-71
2023/10/18 10:56:19;;;;;;;0.10;0.10;;;;;;;;;;4985958;28;20062;-71
2023/10/18 10:58:55;;;;;;;1.10;0.68;;;;;;;;;;4982014;28;20125;-71
2023/10/18 11:04:57;;;;;;;0.20;0.20;;;;;;;;;;4984063;28;20134;-71
2023/10/18 11:07:27;;;;;;;0.20;0.20;;;;;;;;;;4982397;28;20047;-72
2023/10/18 11:10:06;;;;;;;0.20;0.20;;;;;;;;;;4982680;28;20054;-71
2023/10/18 11:12:35;;;;;;;0.00;0.00;;;;;;;;;;4981960;28;20046;-71
2023/10/18 11:15:04;;;;;;;8.25;1.48;;;;;;;;;;4982706;28;20561;-71
2023/10/18 11:17:35;;;;;;;0.38;0.38;;;;;;;;;;4982750;28;20050;-71
2023/10/18 11:20:17;;;;;;;0.15;0.15;;;;;;;;;;4983079;28;20055;-72
2023/10/18 11:22:45;;;;;;;0.57;0.57;;;;;;;;;;4986826;28;20126;-72
2023/10/18 11:25:14;;;;;;;0.20;0.20;;;;;;;;;;4984729;28;20042;-72
2023/10/18 11:27:42;;;;;;;0.35;0.35;;;;;;;;;;4986238;28;20073;-71
2023/10/18 11:30:15;;;;;;;0.63;0.63;;;;;;;;;;4984307;28;20130;-71
2023/10/18 11:32:52;;;;;;;0.30;0.30;;;;;;;;;;4978385;28;20070;-72
2023/10/18 11:38:10;;;;;;;0.15;0.15;;;;;;;;;;4986787;28;20412;-71
2023/10/18 11:40:40;;;;;;;0.10;0.10;;;;;;;;;;4988520;28;20124;-71
2023/10/18 11:43:08;;;;;;;0.10;0.10;;;;;;;;;;4973086;28;20090;-70
2023/10/18 11:45:37;;;;;;;0.10;0.10;;;;;;;;;;4985719;28;20464;-70
2023/10/18 11:48:14;;;;;;;0.10;0.10;;;;;;;;;;4976677;28;20046;-71
2023/10/18 11:50:42;;;;;;;0.15;0.15;;;;;;;;;;4987171;28;20126;-71
2023/10/18 11:53:13;;;;;;;0.43;0.43;;;;;;;;;;4988992;28;20050;-71
2023/10/18 11:55:59;;;;;;;0.10;0.10;;;;;;;;;;4990603;28;20054;-71
2023/10/18 11:58:33;;;;;;;0.23;0.23;;;;;;;;;;4988194;28;20491;-71
2023/10/18 12:01:01;;;;;;;0.10;0.10;;;;;;;;;;4988712;28;20149;-71
2023/10/18 12:03:29;;;;;;;0.10;0.10;;;;;;;;;;4986477;28;20415;-72
2023/10/18 12:05:57;;;;;;;0.20;0.20;;;;;;;;;;4988835;28;20479;-72
2023/10/18 12:08:30;;;;;;;0.00;0.00;;;;;;;;;;4990001;28;20116;-71
2023/10/18 12:10:57;;;;;;;1.10;1.10;;;;;;;;;;4988965;28;20059;-72
2023/10/18 12:13:26;;;;;;;0.22;0.22;;;;;;;;;;4989525;28;20434;-71
2023/10/18 12:16:00;;;;;;;0.47;0.47;;;;;;;;;;4989406;28;20053;-71
2023/10/18 12:18:29;;;;;;;0.00;0.00;;;;;;;;;;4992414;28;20051;-72
2023/10/18 12:20:56;;;;;;;0.10;0.10;;;;;;;;;;4990493;28;20102;-71
2023/10/18 12:23:25;;;;;;;0.05;0.05;;;;;;;;;;4985616;28;20038;-72
2023/10/18 12:25:52;;;;;;;0.35;0.35;;;;;;;;;;4988931;28;20049;-71
2023/10/18 12:28:27;;;;;;;0.20;0.20;;;;;;;;;;4989473;28;20058;-72
2023/10/18 12:30:56;;;;;;;3.05;0.95;;;;;;;;;;4984319;28;20054;-71
2023/10/18 12:33:25;;;;;;;0.43;0.43;;;;;;;;;;4980638;28;20581;-72
2023/10/18 12:35:56;;;;;;;0.80;0.80;;;;;;;;;;4986182;28;20077;-71
2023/10/18 12:38:32;;;;;;;0.40;0.30;;;;;;;;;;4985573;28;20057;-72
